createdAt,value
2024-05-09T00:02:13.840Z,1408
2024-05-09T00:07:44.336Z,1401
2024-05-09T00:13:13.790Z,1412
2024-05-09T00:18:44.355Z,1389
2024-05-09T00:24:14.743Z,1404
2024-05-09T00:29:45.186Z,1402
2024-05-09T00:35:15.711Z,1398
2024-05-09T00:40:45.285Z,1393
2024-05-09T00:46:15.671Z,1402
2024-05-09T00:51:46.129Z,1404
2024-05-09T00:57:15.632Z,1424
2024-05-09T01:02:58.627Z,1414
2024-05-09T01:08:16.776Z,1387
2024-05-09T01:13:46.099Z,1394
2024-05-09T01:19:16.643Z,1416
2024-05-09T01:24:47.036Z,1410
2024-05-09T01:30:21.030Z,1405
2024-05-09T01:35:47.002Z,1407
2024-05-09T01:41:16.548Z,1400
2024-05-09T01:46:47.008Z,1424
2024-05-09T01:52:17.446Z,1429
2024-05-09T01:57:45.989Z,1444
2024-05-09T02:03:17.804Z,1450
2024-05-09T02:08:46.922Z,1440
2024-05-09T02:14:16.529Z,1396
2024-05-09T02:25:17.480Z,1399
2024-05-09T02:30:47.934Z,1402
2024-05-09T02:36:17.419Z,1414
2024-05-09T02:41:47.963Z,1406
2024-05-09T02:47:17.487Z,1395
2024-05-09T02:52:47.899Z,1383
2024-05-09T02:58:18.347Z,1388
2024-05-09T03:03:47.960Z,1373
2024-05-09T03:09:18.325Z,1383
2024-05-09T03:14:48.819Z,1369
2024-05-09T03:20:23.765Z,1380
2024-05-09T03:25:48.801Z,1388
2024-05-09T03:31:18.260Z,1443
2024-05-09T03:36:48.730Z,1449
2024-05-09T03:47:49.015Z,1430
2024-05-09T03:53:19.374Z,1405
2024-05-09T03:58:49.764Z,1415
2024-05-09T04:04:19.306Z,1382
2024-05-09T04:09:49.719Z,1378
2024-05-09T04:15:20.193Z,1374
2024-05-09T04:20:49.797Z,1341
2024-05-09T04:26:20.206Z,1299
2024-05-09T04:31:50.681Z,1254
2024-05-09T04:37:20.121Z,1225
2024-05-09T04:42:55.355Z,1203
2024-05-09T04:48:21.278Z,1195
2024-05-09T04:53:50.610Z,1168
2024-05-09T04:59:21.063Z,1156
2024-05-09T05:04:51.860Z,1139
2024-05-09T05:10:25.548Z,1121
2024-05-09T05:15:55.070Z,1107
2024-05-09T05:21:21.281Z,1080
2024-05-09T05:26:51.568Z,1051
2024-05-09T05:32:22.296Z,1039
2024-05-09T05:37:52.527Z,1041
2024-05-09T05:43:22.021Z,1013
2024-05-09T05:48:52.589Z,1006
2024-05-09T05:59:52.440Z,982
2024-05-09T06:05:24.258Z,975
2024-05-09T06:10:53.541Z,960
2024-05-09T06:16:22.908Z,955
2024-05-09T06:21:53.346Z,931
2024-05-09T06:27:22.850Z,913
2024-05-09T06:32:53.495Z,897
2024-05-09T06:38:23.872Z,872
2024-05-09T06:43:53.450Z,863
2024-05-09T06:49:23.918Z,848
2024-05-09T06:54:54.257Z,832
2024-05-09T07:00:30.749Z,814
2024-05-09T07:05:54.267Z,801
2024-05-09T07:11:24.740Z,803
2024-05-09T07:16:54.300Z,795
2024-05-09T07:22:24.659Z,795
2024-05-09T07:27:55.149Z,793
2024-05-09T07:33:25.058Z,785
2024-05-09T07:38:55.120Z,774
2024-05-09T07:44:25.659Z,772
2024-05-09T08:11:56.037Z,747
2024-05-09T08:17:26.703Z,771
2024-05-09T08:22:55.958Z,763
2024-05-09T08:28:27.204Z,759
2024-05-09T08:33:56.061Z,756
2024-05-09T08:44:56.874Z,753
2024-05-09T08:50:32.525Z,751
2024-05-09T09:01:27.474Z,717
2024-05-09T09:06:58.303Z,696
2024-05-09T09:12:27.383Z,690
2024-05-09T09:17:57.918Z,678
2024-05-09T09:23:27.246Z,670
2024-05-09T09:28:57.730Z,668
2024-05-09T09:34:28.371Z,657
2024-05-09T09:39:57.769Z,670
2024-05-09T09:45:28.203Z,677
2024-05-09T09:50:58.631Z,668
2024-05-09T09:56:28.109Z,666
2024-05-09T10:01:58.882Z,660
2024-05-09T10:07:29.113Z,655
2024-05-09T10:12:58.719Z,649
2024-05-09T10:18:31.179Z,643
2024-05-09T10:23:59.519Z,641
2024-05-09T10:29:28.998Z,640
2024-05-09T10:34:59.499Z,642
2024-05-09T10:40:31.724Z,643
2024-05-09T10:47:05.594Z,652
2024-05-09T10:52:36.094Z,665
2024-05-09T10:58:06.513Z,652
2024-05-09T11:03:36.472Z,643
2024-05-09T11:09:06.459Z,642
2024-05-09T11:14:36.941Z,641
2024-05-09T11:25:36.891Z,637
2024-05-09T11:31:08.031Z,630
2024-05-09T11:36:36.880Z,628
2024-05-09T11:42:07.366Z,635
2024-05-09T11:47:37.889Z,635
2024-05-09T11:53:07.306Z,639
2024-05-09T11:58:37.774Z,641
2024-05-09T12:04:09.065Z,644
2024-05-09T12:09:37.832Z,638
2024-05-09T12:15:08.236Z,640
2024-05-09T12:20:40.126Z,638
2024-05-09T12:26:08.219Z,634
2024-05-09T12:31:38.728Z,633
2024-05-09T12:37:09.217Z,633
2024-05-09T12:42:38.736Z,627
2024-05-09T12:48:13.929Z,624
2024-05-09T12:53:39.613Z,628
2024-05-09T12:59:09.084Z,630
2024-05-09T13:04:46.466Z,632
2024-05-09T13:10:13.913Z,636
2024-05-09T13:15:39.670Z,637
2024-05-09T13:21:10.035Z,634
2024-05-09T13:26:40.535Z,636
2024-05-09T13:32:11.054Z,632
2024-05-09T13:37:40.493Z,628
2024-05-09T13:43:10.987Z,624
2024-05-09T13:48:41.642Z,621
2024-05-09T13:54:10.938Z,626
2024-05-09T14:00:49.191Z,625
2024-05-09T14:06:17.092Z,618
2024-05-09T14:11:47.591Z,616
2024-05-09T14:17:18.237Z,618
2024-05-09T14:22:47.600Z,623
2024-05-09T14:29:24.146Z,619
2024-05-09T14:34:54.685Z,616
2024-05-09T14:45:54.719Z,616
2024-05-09T14:51:25.067Z,619
2024-05-09T14:56:55.539Z,611
2024-05-09T15:02:25.198Z,608
2024-05-09T15:07:55.517Z,612
2024-05-09T15:13:26.252Z,611
2024-05-09T15:18:55.799Z,600
2024-05-09T15:24:25.944Z,601
2024-05-09T15:29:56.418Z,582
2024-05-09T15:35:25.986Z,571
2024-05-09T15:40:56.504Z,563
2024-05-09T15:46:26.905Z,567
2024-05-09T15:51:56.398Z,565
2024-05-09T15:57:26.866Z,565
2024-05-09T16:02:57.376Z,560
2024-05-09T16:08:26.823Z,568
2024-05-09T16:13:57.288Z,570
2024-05-09T16:19:38.664Z,569
2024-05-09T16:24:57.338Z,572
2024-05-09T16:30:34.128Z,583
2024-05-09T16:35:58.219Z,599
2024-05-09T16:41:27.714Z,605
2024-05-09T16:46:58.239Z,603
2024-05-09T16:52:28.690Z,588
2024-05-09T16:57:59.291Z,584
2024-05-09T17:03:29.741Z,581
2024-05-09T17:14:29.639Z,591
2024-05-09T17:20:00.254Z,594
2024-05-09T17:25:29.779Z,604
2024-05-09T17:31:00.252Z,609
2024-05-09T17:36:30.734Z,610
2024-05-09T17:42:04.002Z,613
2024-05-09T17:47:30.705Z,618
2024-05-09T17:53:01.174Z,623
2024-05-09T17:58:31.708Z,621
2024-05-09T18:04:01.324Z,627
2024-05-09T18:09:31.712Z,624
2024-05-09T18:15:02.189Z,636
2024-05-09T18:20:40.308Z,633
2024-05-09T18:26:02.180Z,639
2024-05-09T18:31:32.707Z,640
2024-05-09T18:37:04.449Z,643
2024-05-09T18:42:32.669Z,652
2024-05-09T18:48:03.258Z,651
2024-05-09T18:53:32.565Z,659
2024-05-09T18:59:03.102Z,656
2024-05-09T19:04:32.718Z,655
2024-05-09T19:10:03.406Z,658
2024-05-09T19:15:33.706Z,652
2024-05-09T19:21:03.978Z,657
2024-05-09T19:26:33.484Z,656
2024-05-09T19:32:04.063Z,654
2024-05-09T19:37:33.490Z,651
2024-05-09T19:43:05.593Z,654
2024-05-09T19:49:40.637Z,742
2024-05-09T19:55:10.131Z,814
2024-05-09T20:00:42.814Z,874
2024-05-09T20:06:10.953Z,923
2024-05-09T20:11:40.530Z,946
2024-05-09T20:17:10.947Z,960
2024-05-09T20:22:41.436Z,969
2024-05-09T20:28:11.315Z,995
2024-05-09T20:33:41.459Z,1003
2024-05-09T20:44:41.360Z,1004
2024-05-09T20:50:20.317Z,1031
2024-05-09T20:55:41.485Z,1099
2024-05-09T21:01:12.064Z,1083
2024-05-09T21:06:41.464Z,1093
2024-05-09T21:12:11.924Z,1093
2024-05-09T21:17:42.485Z,1097
2024-05-09T21:23:11.876Z,1114
2024-05-09T21:28:42.346Z,1116
2024-05-09T21:34:12.893Z,1114
2024-05-09T21:39:42.328Z,1123
2024-05-09T21:45:12.774Z,1126
2024-05-09T21:50:43.330Z,1123
2024-05-09T21:56:12.874Z,1119
2024-05-09T22:01:43.468Z,1131
2024-05-09T22:07:12.986Z,1117
2024-05-09T22:12:43.396Z,1110
2024-05-09T22:18:13.905Z,1122
2024-05-09T22:23:43.310Z,1150
2024-05-09T22:29:13.804Z,1200
2024-05-09T22:34:44.484Z,1210
2024-05-09T22:40:20.738Z,1253
2024-05-09T22:45:44.543Z,1207
2024-05-09T22:51:14.853Z,1192
2024-05-09T22:56:44.373Z,1191
2024-05-09T23:02:14.945Z,1213
2024-05-09T23:07:45.333Z,1222
2024-05-09T23:13:14.871Z,1234
2024-05-09T23:18:45.422Z,1242
2024-05-09T23:29:45.256Z,1278
2024-05-09T23:35:15.717Z,1299
2024-05-09T23:40:46.245Z,1306
2024-05-09T23:46:15.705Z,1327
2024-05-09T23:51:46.178Z,1338
2024-05-09T23:57:15.672Z,1363
